Latest Weather Observations for Bundaberg

IDQ60801

Issued at 9:32 pm EST Sunday 26 April 2015 (issued every 30 minutes, with the page automatically refreshed every 10 minutes)

About weather observations | Map of weather stations | Latest weather observations for QLD | Other Formats
Station Details ID: 039128 Name: BUNDABERG AERO Lat: -24.91 Lon: 152.32 Height: 30.82 m
Data from the previous 72 hours. | See also: Recent months at Bundaberg
Date/Time
EST
Temp
°C
App
Temp
°C
Dew
Point
Rel
Hum
%
Delta-T
°C
Wind Press
QNH
hPa
Press
MSL
hPa
Rain
since 9 am
mm
Dir
 
Spd
km/h
Gust
km/h
Spd
kts
Gust
kts
26/09:00pm 16.1 12.8 4.5 46 5.4 SSW 11 19 6 10 1017.0 1016.9 0.0
26/08:30pm 16.5 13.6 4.9 46 5.5 SSW 9 13 5 7 1016.6 1016.5 0.0
26/08:00pm 16.2 14.0 5.5 49 5.1 S 6 9 3 5 1016.3 1016.2 0.0
26/07:30pm 18.1 15.0 3.6 38 6.8 SW 9 13 5 7 1015.7 1015.6 0.0
26/07:00pm 18.9 15.8 3.5 36 7.2 SW 9 13 5 7 1015.1 1015.0 0.0
26/06:30pm 19.9 15.2 3.2 33 7.9 SW 17 20 9 11 1014.4 1014.3 0.0
26/06:00pm 20.3 16.4 3.5 33 8.0 SW 13 17 7 9 1013.9 1013.8 0.0
26/05:30pm 21.7 17.3 2.9 29 8.9 WSW 15 22 8 12 1013.4 1013.3 0.0
26/05:00pm 23.1 17.9 2.6 26 9.8 SW 19 30 10 16 1012.9 1012.8 0.0
26/04:30pm 24.1 18.7 2.3 24 10.4 SW 20 28 11 15 1012.6 1012.4 0.0
26/04:00pm 24.7 19.2 3.9 26 10.3 SW 22 30 12 16 1012.3 1012.1 0.0
26/03:30pm 25.0 18.9 3.0 24 10.7 WSW 24 35 13 19 1012.0 1011.8 0.0
26/03:00pm 25.1 19.5 3.7 25 10.6 SW 22 33 12 18 1011.8 1011.6 0.0
26/02:30pm 25.1 19.0 2.5 23 10.9 SW 24 39 13 21 1011.6 1011.4 0.0
26/02:00pm 24.9 19.1 2.4 23 10.8 SW 22 35 12 19 1011.7 1011.5 0.0
26/01:30pm 24.7 17.3 1.6 22 10.9 SW 30 46 16 25 1011.7 1011.5 0.0
26/01:25pm 24.8 17.8 1.7 22 11.0 SW 28 46 15 25 1011.7 1011.5 0.0
26/01:00pm 24.7 18.0 1.6 22 10.9 SW 26 43 14 23 1011.9 1011.7 0.0
26/12:30pm 24.0 16.6 1.6 23 10.5 WSW 30 41 16 22 1012.3 1012.1 0.0
26/12:00pm 24.0 18.2 2.2 24 10.4 SW 22 35 12 19 1012.5 1012.3 0.0
26/11:30am 23.2 15.9 2.7 26 9.8 SW 30 41 16 22 1012.8 1012.6 0.0
26/11:00am 22.6 14.7 2.1 26 9.6 SW 33 46 18 25 1013.0 1012.9 0.0
26/10:30am 22.6 17.0 3.7 29 9.2 SW 22 41 12 22 1013.3 1013.2 0.0
26/10:00am 21.4 14.7 3.6 31 8.5 SW 28 41 15 22 1013.8 1013.7 0.0
26/09:30am 21.0 15.1 4.1 33 8.2 SW 24 39 13 21 1014.2 1014.1 0.0
26/09:00am 20.8 13.5 4.4 34 8.0 SW 32 52 17 28 1014.1 1014.0 0.0
26/08:30am 20.0 13.5 4.5 36 7.5 SW 28 54 15 29 1013.9 1013.8 0.0
26/08:26am 20.0 13.4 4.1 35 7.6 SW 28 46 15 25 1013.9 1013.8 0.0
26/08:00am 19.4 13.4 3.2 34 7.6 SW 24 37 13 20 1013.9 1013.8 0.0
26/07:30am 18.9 12.2 3.5 36 7.2 SW 28 41 15 22 1013.8 1013.7 0.0
26/07:00am 18.3 13.1 3.4 37 7.0 SW 20 32 11 17 1013.3 1013.2 0.0
26/06:30am 17.8 13.3 4.0 40 6.5 SW 17 26 9 14 1012.8 1012.6 0.0
26/06:00am 18.0 14.1 5.2 43 6.2 SW 15 22 8 12 1012.4 1012.2 0.0
26/05:30am 18.1 14.3 6.0 45 5.9 SW 15 22 8 12 1011.9 1011.7 0.0
26/05:00am 17.8 14.3 7.2 50 5.3 SW 15 22 8 12 1011.6 1011.4 0.0
26/04:30am 18.1 15.3 8.4 53 5.0 SW 13 17 7 9 1011.3 1011.1 0.0
26/04:00am 18.0 15.7 9.1 56 4.6 SW 11 17 6 9 1011.0 1010.8 0.0
26/03:30am 18.0 17.1 11.3 65 3.6 SW 7 11 4 6 1010.8 1010.6 0.0
26/03:00am 16.5 15.5 13.4 82 1.7 W 11 13 6 7 1010.8 1010.6 0.0
26/02:30am 17.1 15.5 14.0 82 1.8 W 15 19 8 10 1010.7 1010.5 0.0
26/02:00am 17.4 16.4 14.7 84 1.6 W 13 17 7 9 1010.7 1010.5 0.0
26/01:30am 17.4 16.3 15.4 88 1.2 WNW 15 17 8 9 1010.8 1010.6 0.0
26/01:00am 17.1 16.4 15.4 90 1.0 WNW 13 15 7 8 1010.4 1010.2 0.0
26/12:30am 16.7 16.4 14.5 87 1.3 NW 9 11 5 6 1010.5 1010.3 0.0
26/12:00am 17.5 17.5 15.3 87 1.3 NW 9 11 5 6 1010.6 1010.4 0.0
 
Date/Time
EST
Temp
°C
App
Temp
°C
Dew
Point
Rel
Hum
%
Delta-T
°C
Wind Press
QNH
hPa
Press
MSL
hPa
Rain
since 9 am
mm
Dir
 
Spd
km/h
Gust
km/h
Spd
kts
Gust
kts
25/11:30pm 17.9 17.6 15.5 86 1.4 WNW 11 11 6 6 1010.6 1010.4 0.0
25/11:00pm 18.8 18.8 16.2 85 1.6 NNW 11 13 6 7 1010.7 1010.5 0.0
25/10:30pm 19.1 19.5 16.3 84 1.7 NW 9 13 5 7 1011.0 1010.8 0.0
25/10:00pm 20.0 20.4 17.2 84 1.7 WNW 11 15 6 8 1011.2 1011.0 0.0
25/09:30pm 20.5 21.0 18.3 87 1.4 NNW 13 17 7 9 1011.2 1011.0 0.0
25/09:00pm 20.6 20.5 18.7 89 1.2 NNW 17 19 9 10 1011.1 1010.9 0.0
25/08:30pm 20.6 21.1 18.4 87 1.4 NNW 13 15 7 8 1011.0 1010.8 0.0
25/08:00pm 20.5 20.6 18.4 88 1.3 NNW 15 17 8 9 1010.8 1010.6 0.0
25/07:30pm 20.8 21.3 18.4 86 1.5 NNW 13 17 7 9 1010.5 1010.3 0.0
25/07:00pm 21.4 21.5 18.4 83 1.9 NNW 15 17 8 9 1010.0 1009.8 0.0
25/06:30pm 21.8 21.8 18.2 80 2.2 NNW 15 17 8 9 1009.8 1009.6 0.0
25/06:00pm 22.6 22.5 17.9 75 2.9 NNW 15 17 8 9 1009.6 1009.4 0.0
25/05:30pm 23.8 23.0 17.1 66 4.1 N 17 20 9 11 1009.3 1009.1 0.0
25/05:00pm 24.8 23.4 16.5 60 5.1 N 19 24 10 13 1009.0 1008.8 0.0
25/04:30pm 25.9 23.6 15.6 53 6.3 N 22 30 12 16 1008.7 1008.5 0.0
25/04:00pm 26.9 23.6 14.0 45 7.7 N 24 28 13 15 1008.4 1008.2 0.0
25/03:30pm 27.5 23.8 12.7 40 8.7 N 24 28 13 15 1008.2 1008.0 0.0
25/03:00pm 28.6 25.9 12.9 38 9.3 N 19 26 10 14 1008.2 1008.0 0.0
25/02:30pm 29.4 28.6 14.0 39 9.3 NNE 11 20 6 11 1008.1 1007.9 0.0
25/02:00pm 29.8 28.7 11.8 33 10.5 NNW 9 17 5 9 1008.3 1008.1 0.0
25/01:30pm 29.4 28.7 11.9 34 10.2 WNW 7 17 4 9 1008.6 1008.4 0.0
25/01:00pm 29.0 28.4 11.6 34 10.1 WNW 6 11 3 6 1009.0 1008.8 0.0
25/12:30pm 28.7 27.2 10.4 32 10.4 N 9 13 5 7 1009.5 1009.3 0.0
25/12:00pm 28.1 27.4 12.0 36 9.3 W 7 13 4 7 1009.9 1009.7 0.0
25/11:30am 27.5 26.5 12.3 39 8.8 W 9 17 5 9 1010.4 1010.2 0.0
25/11:00am 26.9 26.5 12.9 42 8.2 WNW 7 13 4 7 1011.1 1010.9 0.0
25/10:30am 26.3 25.3 13.4 45 7.6 WNW 11 15 6 8 1011.4 1011.2 0.0
25/10:00am 25.4 24.1 13.6 48 6.9 W 13 17 7 9 1011.6 1011.4 0.0
25/09:30am 24.3 23.3 14.7 55 5.7 WSW 13 17 7 9 1011.9 1011.7 0.0
25/09:00am 23.1 22.8 15.4 62 4.6 SW 11 15 6 8 1011.9 1011.7 0.0
25/08:30am 21.4 21.6 15.7 70 3.4 SW 9 13 5 7 1011.9 1011.7 0.0
25/08:00am 19.5 19.9 15.4 77 2.4 WSW 7 13 4 7 1011.8 1011.6 0.0
25/07:30am 17.8 18.2 15.2 85 1.5 W 7 11 4 6 1011.5 1011.3 0.0
25/07:00am 16.3 16.1 14.8 91 0.9 WSW 9 11 5 6 1011.3 1011.1 0.0
25/06:30am 14.3 14.2 13.3 94 0.6 WSW 6 9 3 5 1011.1 1010.9 0.0
25/06:00am 14.2 13.9 13.4 95 0.4 WSW 7 9 4 5 1010.9 1010.7 0.0
25/05:30am 13.6 13.1 12.7 94 0.5 WSW 7 9 4 5 1010.6 1010.4 0.0
25/05:00am 14.2 15.3 13.4 95 0.4 CALM 0 0 0 0 1010.5 1010.3 0.0
25/04:30am 14.2 15.2 13.2 94 0.6 CALM 0 0 0 0 1010.1 1009.9 0.0
25/04:00am 14.3 15.2 13.0 92 0.7 CALM 0 0 0 0 1010.1 1009.9 0.0
25/03:30am 14.8 16.0 13.8 94 0.6 CALM 0 0 0 0 1010.2 1010.0 0.0
25/03:00am 14.8 15.9 13.5 92 0.7 CALM 0 0 0 0 1010.2 1010.0 0.0
25/02:30am 15.1 16.1 13.3 89 1.0 CALM 0 0 0 0 1010.2 1010.0 0.0
25/02:00am 16.0 17.4 14.4 90 0.9 CALM 0 0 0 0 1010.3 1010.1 0.0
25/01:30am 16.2 17.6 14.4 89 1.0 CALM 0 0 0 0 1010.3 1010.1 0.0
25/01:00am 16.0 16.3 14.4 90 0.9 W 6 7 3 4 1010.4 1010.2 0.0
25/12:30am 16.5 16.2 14.3 87 1.3 W 9 11 5 6 1010.8 1010.6 0.0
25/12:00am 16.1 17.5 14.5 90 0.9 CALM 0 0 0 0 1010.9 1010.7 0.0
 
Date/Time
EST
Temp
°C
App
Temp
°C
Dew
Point
Rel
Hum
%
Delta-T
°C
Wind Press
QNH
hPa
Press
MSL
hPa
Rain
since 9 am
mm
Dir
 
Spd
km/h
Gust
km/h
Spd
kts
Gust
kts
24/11:30pm 16.4 17.8 14.4 88 1.1 CALM 0 0 0 0 1010.7 1010.5 0.0
24/11:00pm 16.8 18.4 14.8 88 1.2 CALM 0 0 0 0 1010.9 1010.7 0.0
24/10:30pm 17.4 19.0 15.0 86 1.4 CALM 0 0 0 0 1011.0 1010.8 0.0
24/10:00pm 18.1 19.5 15.4 84 1.6 NW 2 6 1 3 1011.0 1010.8 0.0
24/09:30pm 18.1 18.7 15.4 84 1.6 NW 6 7 3 4 1011.1 1010.9 0.0
24/09:00pm 18.4 18.8 15.3 82 1.8 WNW 7 7 4 4 1010.9 1010.7 0.0
24/08:30pm 18.9 19.0 15.6 81 2.0 N 9 11 5 6 1010.7 1010.5 0.0
24/08:00pm 18.6 18.2 15.3 81 1.9 NNW 11 13 6 7 1010.5 1010.3 0.0
24/07:30pm 19.2 19.3 15.5 79 2.2 NNW 9 13 5 7 1010.4 1010.2 0.0
24/07:00pm 19.7 19.5 15.6 77 2.4 N 11 13 6 7 1010.0 1009.8 0.0
24/06:30pm 20.9 21.0 15.4 71 3.3 N 9 13 5 7 1009.7 1009.5 0.0
24/06:00pm 21.9 21.6 15.5 67 3.8 N 11 15 6 8 1009.4 1009.2 0.0
24/05:30pm 22.7 21.6 15.3 63 4.4 N 15 19 8 10 1009.1 1008.9 0.0
24/05:00pm 23.7 22.6 15.2 59 5.1 NNE 15 19 8 10 1008.6 1008.4 0.0
24/04:30pm 24.8 22.6 14.3 52 6.2 NNE 19 22 10 12 1008.3 1008.1 0.0
24/04:00pm 25.6 23.5 14.7 51 6.5 NNE 19 22 10 12 1008.1 1007.9 0.0
24/03:30pm 25.9 23.1 14.4 49 6.9 NNE 22 30 12 16 1007.8 1007.6 0.0
24/03:00pm 26.3 24.7 13.8 46 7.4 NNE 15 20 8 11 1007.9 1007.7 0.0
24/02:30pm 27.9 26.0 10.6 34 9.8 W 11 17 6 9 1007.9 1007.7 0.0
24/02:00pm 27.7 26.3 12.1 38 9.1 WSW 11 20 6 11 1008.2 1008.0 0.0
24/01:30pm 27.1 25.4 11.2 37 9.1 NW 11 17 6 9 1008.7 1008.5 0.0
24/01:00pm 26.5 24.7 11.0 38 8.8 WSW 11 17 6 9 1009.0 1008.8 0.0
24/12:30pm 26.7 25.2 12.0 40 8.5 SSW 11 17 6 9 1009.3 1009.1 0.0
24/12:00pm 26.6 25.6 11.1 38 8.8 WSW 7 15 4 8 1009.7 1009.5 0.0
24/11:30am 25.7 25.3 12.5 44 7.6 S 6 11 3 6 1010.2 1010.0 0.0
24/11:00am 25.4 24.4 13.3 47 7.1 WSW 11 15 6 8 1010.9 1010.7 0.0
24/10:30am 24.7 24.3 14.2 52 6.2 WSW 9 13 5 7 1011.5 1011.3 0.0
24/10:00am 23.5 23.4 13.9 55 5.6 SW 7 13 4 7 1011.6 1011.4 0.0
24/09:30am 22.6 22.2 14.2 59 4.9 WSW 9 13 5 7 1012.2 1012.0 0.0
24/09:00am 21.6 20.8 14.0 62 4.4 SW 11 17 6 9 1012.2 1012.0 0.0
24/08:30am 19.9 19.9 15.3 75 2.7 SW 9 11 5 6 1011.7 1011.5 0.0
24/08:00am 17.4 17.4 14.1 81 1.9 SW 7 11 4 6 1011.8 1011.6 0.0
24/07:30am 16.6 16.6 14.1 85 1.4 W 7 11 4 6 1011.5 1011.3 0.0
24/07:00am 15.3 16.3 13.3 88 1.1 CALM 0 0 0 0 1011.1 1010.9 0.0
24/06:30am 15.0 14.2 13.0 88 1.1 WSW 9 15 5 8 1011.1 1010.9 0.0
24/06:00am 15.2 14.1 13.2 88 1.1 WSW 11 13 6 7 1010.6 1010.4 0.0
24/05:30am 14.6 13.9 13.1 91 0.8 WSW 9 11 5 6 1010.3 1010.1 0.0
24/05:00am 13.8 13.4 12.4 91 0.8 WSW 6 7 3 4 1010.1 1009.9 0.0
24/04:30am 13.5 12.5 12.4 93 0.6 WSW 9 11 5 6 1010.1 1009.9 0.0
24/04:00am 13.8 13.3 12.5 92 0.7 WSW 7 9 4 5 1010.2 1010.0 0.0
24/03:30am 13.9 14.7 12.5 91 0.8 CALM 0 6 0 3 1010.2 1010.0 0.0
24/03:00am 14.4 15.4 13.1 92 0.7 CALM 0 0 0 0 1010.4 1010.2 0.0
24/02:30am 14.4 15.4 13.1 92 0.7 CALM 0 0 0 0 1010.6 1010.4 0.0
24/02:00am 14.5 15.4 13.0 91 0.8 CALM 0 0 0 0 1010.8 1010.6 0.0
24/01:30am 14.8 15.8 13.2 90 0.9 CALM 0 0 0 0 1011.0 1010.8 0.0
24/01:00am 15.0 15.3 13.4 90 0.9 WSW 4 9 2 5 1011.2 1011.0 0.0
24/12:30am 14.7 14.4 13.4 92 0.7 WSW 7 9 4 5 1011.6 1011.4 0.0
24/12:00am 14.9 14.8 13.4 91 0.8 W 6 7 3 4 1011.5 1011.3 0.0
 
Date/Time
EST
Temp
°C
App
Temp
°C
Dew
Point
Rel
Hum
%
Delta-T
°C
Wind Press
QNH
hPa
Press
MSL
hPa
Rain
since 9 am
mm
Dir
 
Spd
km/h
Gust
km/h
Spd
kts
Gust
kts
23/11:30pm 14.8 15.8 13.3 91 0.8 CALM 0 6 0 3 1011.6 1011.4 0.0
23/11:00pm 14.9 15.9 13.1 89 1.0 CALM 0 0 0 0 1011.7 1011.5 0.0
23/10:30pm 15.3 16.3 13.3 88 1.1 CALM 0 0 0 0 1011.5 1011.3 0.0
23/10:00pm 15.6 16.6 13.3 86 1.3 CALM 0 0 0 0 1011.7 1011.5 0.0

Other Formats:

Comma delimited format used in spreadsheet applications
http://www.bom.gov.au/fwo/IDQ60801/IDQ60801.94387.axf

JavaScript Object Notation format (JSON) in row-major order
http://www.bom.gov.au/fwo/IDQ60801/IDQ60801.94387.json